Time;durP1;ratioP1;P1;durP2;ratioP2;P2;SDS_P1;SDS_P2;PMS_P1;PMS_P2;Temp;Humidity;BMP_temperature;BMP_pressure;BME280_temperature;BME280_humidity;BME280_pressure;Samples;Min_cycle;Max_cycle;Signal;HPM_P1;HPM_P2
2022/12/25 00:33:12;;;;;;;29.90;13.80;;;;;;;8.83;67.18;99175.57;231489;1202;139482;-65
2022/12/25 00:39:40;;;;;;;25.20;11.90;;;;;;;8.83;67.28;99186.39;232163;1201;138108;-66
2022/12/25 01:16:04;;;;;;;23.60;12.60;;;;;;;8.71;68.20;99229.08;229945;1215;635872;-65
2022/12/25 01:37:05;;;;;;;22.20;12.00;;;;;;;8.39;68.79;99276.16;230970;1202;138433;-68
2022/12/25 01:43:17;;;;;;;23.10;12.10;;;;;;;8.32;69.35;99272.23;231422;1209;137818;-69
2022/12/25 01:49:45;;;;;;;;;;;;;;;;;;;;;
2022/12/25 01:57:48;;;;;;;28.50;13.50;;;;;;;8.28;69.53;99273.80;230928;1212;139148;-67
2022/12/25 03:12:25;;;;;;;25.20;13.20;;;;;;;8.86;69.06;99314.13;239147;1184;138568;-68
2022/12/25 03:18:53;;;;;;;27.00;12.50;;;;;;;8.84;68.68;99317.95;239084;1186;138585;-71
2022/12/25 04:48:54;;;;;;;23.20;13.20;;;;;;;8.24;70.37;99365.77;231773;1216;95941;-67
2022/12/25 04:55:08;;;;;;;;;;;;;;;;;;;;;
2022/12/25 05:00:56;;;;;;;22.70;12.70;;;;;;;8.23;69.96;99366.51;234474;1198;138566;-70
2022/12/25 05:07:18;;;;;;;;;;;;;;;;;;;;;
2022/12/25 05:13:40;;;;;;;;;;;;;;;;;;;;;
2022/12/25 05:20:00;;;;;;;23.20;12.60;;;;;;;8.36;69.83;99373.70;234455;1198;139247;-68
2022/12/25 05:34:02;;;;;;;24.10;12.90;;;;;;;8.40;69.50;99374.56;234327;1199;137891;-66
2022/12/25 05:39:26;;;;;;;21.90;12.30;;;;;;;8.32;69.39;99383.23;233783;1203;139243;-67
2022/12/25 05:45:34;;;;;;;19.80;12.00;;;;;;;8.26;69.75;99393.77;234350;1201;141291;-67
2022/12/25 05:51:47;;;;;;;;;;;;;;;;;;;;;
2022/12/25 05:57:53;;;;;;;24.10;12.50;;;;;;;8.12;70.07;99417.38;234242;1198;139155;-70
2022/12/25 06:03:58;;;;;;;20.50;11.70;;;;;;;8.20;70.12;99431.54;234324;1199;139686;-70
2022/12/25 06:09:38;;;;;;;94.50;61.70;;;;;;;8.35;70.88;99443.77;234259;1198;139092;-69
2022/12/25 06:15:04;;;;;;;22.50;13.20;;;;;;;8.54;70.90;99444.31;234358;1201;138816;-68
2022/12/25 06:21:01;;;;;;;23.80;12.90;;;;;;;8.54;69.68;99442.52;234310;1199;138567;-71
2022/12/25 06:35:19;;;;;;;;;;;;;;;;;;;;;
2022/12/25 06:41:49;;;;;;;23.60;14.00;;;;;;;8.19;69.85;99465.87;233886;1198;139118;-73
2022/12/25 06:47:46;;;;;;;22.90;12.50;;;;;;;8.20;70.08;99463.70;234390;1200;139189;-72
2022/12/25 06:53:51;;;;;;;;;;;;;;;8.24;70.02;99473.04;234390;1201;139449;-68
2022/12/25 07:00:16;;;;;;;23.00;13.50;;;;;;;8.27;69.94;99487.58;234450;1201;125294;-73
2022/12/25 07:05:51;;;;;;;;;;;;;;;;;;;;;
2022/12/25 07:12:16;;;;;;;22.40;13.50;;;;;;;8.37;69.40;99503.39;234383;1196;138761;-70
2022/12/25 07:18:49;;;;;;;;;;;;;;;;;;;;;
2022/12/25 07:35:40;;;;;;;22.10;13.20;;;;;;;8.39;69.66;99556.91;234117;1200;138565;-65
2022/12/25 07:41:19;;;;;;;21.00;12.90;;;;;;;8.43;69.46;99567.49;234219;1200;139106;-69
2022/12/25 07:46:50;;;;;;;25.00;14.00;;;;;;;8.48;69.35;99578.25;234316;1203;138851;-66
2022/12/25 07:52:47;;;;;;;;;;;;;;;;;;;;;
2022/12/25 07:58:49;;;;;;;18.50;12.30;;;;;;;8.49;69.07;99596.40;233938;1202;138420;-67
2022/12/25 08:06:11;;;;;;;;;;;;;;;;;;;;;
2022/12/25 08:19:49;;;;;;;;;;;;;;;;;;;;;
2022/12/25 08:39:57;;;;;;;;;;;;;;;;;;;;;
2022/12/25 08:46:13;;;;;;;18.60;11.20;;;;;;;8.75;68.60;99601.61;233858;1203;138869;-67
2022/12/25 08:52:20;;;;;;;18.60;11.00;;;;;;;8.83;68.48;99594.02;233982;1198;138589;-76
2022/12/25 08:58:26;;;;;;;;;;;;;;;;;;;;;
2022/12/25 09:03:40;;;;;;;22.60;9.60;;;;;;;8.87;68.82;99577.02;234179;1199;139560;-75
2022/12/25 09:09:50;;;;;;;;;;;;;;;;;;;;;
2022/12/25 09:15:30;;;;;;;;;;;;;;;;;;;;;
2022/12/25 09:22:01;;;;;;;;;;;;;;;;;;;;;
2022/12/25 09:29:13;;;;;;;15.50;9.00;;;;;;;9.37;67.31;99616.04;233507;1202;139012;-70
2022/12/25 09:34:53;;;;;;;16.10;9.10;;;;;;;9.44;66.75;99621.74;233708;1201;138957;-71
2022/12/25 09:40:45;;;;;;;17.60;8.60;;;;;;;9.46;66.63;99620.08;234038;1201;138611;-71
2022/12/25 09:47:16;;;;;;;;;;;;;;;;;;;;;
2022/12/25 09:53:27;;;;;;;;;;;;;;;;;;;;;
2022/12/25 09:59:46;;;;;;;;;;;;;;;;;;;;;
2022/12/25 10:06:01;;;;;;;14.60;8.00;;;;;;;9.59;66.29;99625.29;234336;1196;138680;-69
2022/12/25 10:12:48;;;;;;;;;;;;;;;;;;;;;
2022/12/25 10:18:43;;;;;;;17.10;8.40;;;;;;;9.97;65.34;99639.19;234655;1196;139295;-67
2022/12/25 10:32:43;;;;;;;14.80;8.10;;;;;;;10.35;64.39;99641.00;234479;1196;138863;-66
2022/12/25 10:37:40;;;;;;;15.20;7.60;;;;;;;10.50;64.24;99634.59;234424;1199;139509;-66
2022/12/25 10:44:14;;;;;;;13.20;7.20;;;;;;;10.61;63.76;99618.91;234418;1198;139647;-65
2022/12/25 10:50:05;;;;;;;15.10;7.10;;;;;;;10.60;63.26;99606.52;234546;1196;138794;-65
2022/12/25 10:56:07;;;;;;;;;;;;;;;;;;;;;
2022/12/25 11:01:21;;;;;;;70.60;48.20;;;;;;;10.57;63.08;99598.71;234361;1197;139145;-67
2022/12/25 11:07:53;;;;;;;13.60;6.50;;;;;;;10.58;63.25;99589.95;234248;1196;139207;-69
2022/12/25 11:13:27;;;;;;;11.70;6.20;;;;;;;10.59;62.97;99571.80;234471;1197;140755;-65
2022/12/25 11:19:29;;;;;;;;;;;;;;;;;;;;;
2022/12/25 11:26:03;;;;;;;100.30;58.20;;;;;;;10.62;62.85;99563.33;234371;1196;139775;-67
2022/12/25 11:32:47;;;;;;;;;;;;;;;;;;;;;
2022/12/25 11:38:17;;;;;;;11.30;5.20;;;;;;;10.79;61.81;99557.76;234529;1196;138954;-64
2022/12/25 11:51:30;;;;;;;14.30;5.10;;;;;;;10.90;61.31;99551.14;234442;1196;138938;-66
2022/12/25 11:57:10;;;;;;;;;;;;;;;;;;;;;
2022/12/25 12:03:12;;;;;;;11.80;5.40;;;;;;;11.09;62.05;99559.99;234443;1196;139590;-66
2022/12/25 12:08:31;;;;;;;11.60;4.40;;;;;;;11.10;60.47;99564.40;234405;1200;139143;-65
2022/12/25 12:15:10;;;;;;;;;;;;;;;;;;;;;
2022/12/25 12:28:11;;;;;;;10.50;5.60;;;;;;;11.10;60.45;99555.15;234187;1200;139142;-65
2022/12/25 12:42:01;;;;;;;10.30;3.90;;;;;;;11.11;59.97;99552.98;234346;1196;139519;-67
2022/12/25 12:47:34;;;;;;;;;;;;;;;;;;;;;
2022/12/25 12:54:27;;;;;;;11.80;4.20;;;;;;;11.50;58.70;99553.10;234300;1197;125080;-67
2022/12/25 13:00:23;;;;;;;7.70;3.60;;;;;;;11.53;58.21;99550.41;234264;1197;138840;-67
2022/12/25 13:06:24;;;;;;;12.90;4.40;;;;;;;11.48;58.05;99552.11;234309;1197;139795;-67
2022/12/25 13:11:56;;;;;;;10.90;4.60;;;;;;;11.44;57.77;99543.80;234357;1196;139007;-67
2022/12/25 13:18:28;;;;;;;13.20;4.40;;;;;;;11.43;58.41;99538.38;234413;1196;138858;-66
2022/12/25 13:23:52;;;;;;;;;;;;;;;;;;;;;
2022/12/25 13:30:08;;;;;;;;;;;;;;;;;;;;;
2022/12/25 13:36:04;;;;;;;;;;;;;;;;;;;;;
2022/12/25 13:48:15;;;;;;;16.40;8.40;;;;;;;11.01;59.58;99545.73;234408;1196;139227;-66
2022/12/25 13:54:19;;;;;;;11.40;5.40;;;;;;;10.95;59.39;99549.43;234393;1196;138833;-66
2022/12/25 13:59:46;;;;;;;11.20;5.50;;;;;;;10.78;59.58;99547.55;234391;1198;139614;-67
2022/12/25 14:05:57;;;;;;;11.70;5.10;;;;;;;10.64;59.94;99546.70;234433;1196;139377;-66
2022/12/25 14:18:37;;;;;;;12.30;6.20;;;;;;;10.18;60.52;99543.63;234105;1197;139609;-68
2022/12/25 14:24:56;;;;;;;14.20;6.90;;;;;;;9.97;61.31;99549.48;234315;1196;140135;-66
2022/12/25 14:31:21;;;;;;;14.90;7.80;;;;;;;9.80;61.84;99530.36;234289;1197;139069;-66
2022/12/25 14:37:16;;;;;;;;;;;;;;;;;;;;;
2022/12/25 14:43:42;;;;;;;;;;;;;;;;;;;;;
2022/12/25 14:49:40;;;;;;;12.50;6.20;;;;;;;8.87;62.60;99563.71;234389;1198;140446;-67
2022/12/25 14:55:39;;;;;;;;;;;;;;;8.57;63.34;99554.48;234320;1196;138742;-68
2022/12/25 15:09:39;;;;;;;;;;;;;;;;;;;;;
2022/12/25 15:22:35;;;;;;;15.80;7.30;;;;;;;8.35;65.09;99549.48;234330;1198;141711;-66
2022/12/25 15:28:15;;;;;;;15.40;6.90;;;;;;;8.18;64.50;99566.79;234380;1197;139581;-67
2022/12/25 15:34:31;;;;;;;14.60;7.00;;;;;;;8.06;64.76;99575.29;234192;1198;138981;-66
2022/12/25 15:40:24;;;;;;;11.30;6.30;;;;;;;7.95;64.97;99574.34;234290;1200;138764;-67
2022/12/25 15:46:23;;;;;;;29.40;17.20;;;;;;;7.98;65.81;99578.80;234504;1198;139584;-68
2022/12/25 15:52:17;;;;;;;;;;;;;;;;;;;;;
2022/12/25 15:58:42;;;;;;;14.70;7.20;;;;;;;7.76;64.81;99582.19;234281;1198;139210;-67
2022/12/25 16:04:46;;;;;;;16.80;8.20;;;;;;;7.57;65.15;99581.96;234278;1197;138938;-69
2022/12/25 16:25:23;;;;;;;16.70;9.70;;;;;;;7.15;66.02;99556.80;232446;1211;645717;-67
2022/12/25 16:38:07;;;;;;;;;;;;;;;;;;;;;
2022/12/25 16:52:51;;;;;;;73.60;45.50;;;;;;;7.52;68.00;99514.72;234028;1202;138746;-68
2022/12/25 16:57:53;;;;;;;28.70;17.30;;;;;;;7.70;68.02;99541.30;234163;1201;138458;-68
2022/12/25 17:35:04;;;;;;;34.10;19.10;;;;;;;7.74;68.56;99505.13;232976;1209;636083;-69
2022/12/25 17:42:00;;;;;;;32.00;19.60;;;;;;;7.74;68.16;99495.56;234426;1200;138000;-67
2022/12/25 17:47:17;;;;;;;30.30;18.90;;;;;;;7.68;68.03;99502.54;234312;1203;139044;-67
2022/12/25 18:08:03;;;;;;;;;;;;;;;;;;;;;
2022/12/25 18:14:40;;;;;;;;;;;;;;;;;;;;;
2022/12/25 18:21:27;;;;;;;32.90;20.60;;;;;;;7.34;69.16;99452.42;232789;1203;138008;-65
2022/12/25 18:48:04;;;;;;;34.10;22.80;;;;;;;7.64;69.44;99471.10;232633;1206;138848;-68
2022/12/25 19:01:01;;;;;;;;;;;;;;;;;;;;;
2022/12/25 19:10:12;;;;;;;40.40;24.10;;;;;;;7.46;69.48;99459.16;231692;1215;657894;-67
2022/12/25 19:17:00;;;;;;;40.30;24.10;;;;;;;7.42;69.57;99462.02;234034;1200;138072;-66
2022/12/25 19:22:31;;;;;;;41.30;24.50;;;;;;;7.44;69.57;99448.50;234349;1202;139683;-68
2022/12/25 19:36:33;;;;;;;;;;;;;;;;;;;;;
2022/12/25 19:42:36;;;;;;;38.70;25.10;;;;;;;7.49;69.01;99445.11;234166;1199;138440;-68
2022/12/25 19:49:03;;;;;;;44.40;25.90;;;;;;;7.43;69.09;99447.65;234159;1199;138603;-68
2022/12/25 19:55:03;;;;;;;49.10;27.20;;;;;;;7.39;69.03;99442.55;234210;1200;138498;-66
2022/12/25 20:01:00;;;;;;;44.80;27.00;;;;;;;7.33;69.04;99433.92;234149;1202;139091;-69
2022/12/25 20:06:57;;;;;;;47.20;26.80;;;;;;;7.29;69.09;99437.46;234204;1200;138622;-69
2022/12/25 20:12:49;;;;;;;;;;;;;;;;;;;;;
2022/12/25 20:18:21;;;;;;;49.00;28.10;;;;;;;7.21;69.02;99402.36;233965;1200;138616;-69
2022/12/25 20:24:24;;;;;;;44.20;27.00;;;;;;;7.20;69.08;99394.28;234060;1203;139494;-69
2022/12/25 20:30:16;;;;;;;45.50;27.50;;;;;;;7.20;68.88;99391.99;234371;1196;139092;-68
2022/12/25 20:43:28;;;;;;;47.10;28.60;;;;;;;7.09;68.87;99388.90;234432;1197;140118;-69
2022/12/25 20:49:36;;;;;;;47.30;29.40;;;;;;;7.01;68.97;99382.55;234199;1198;139176;-68
2022/12/25 20:55:45;;;;;;;42.70;27.80;;;;;;;6.94;69.06;99374.75;234252;1196;139155;-69
2022/12/25 21:02:14;;;;;;;49.80;29.20;;;;;;;6.85;69.20;99377.22;234379;1196;139230;-67
2022/12/25 21:09:01;;;;;;;188.60;113.00;;;;;;;6.84;69.93;99366.48;234309;1199;139051;-67
2022/12/25 21:28:08;;;;;;;46.20;30.10;;;;;;;6.97;69.00;99337.05;234228;1199;139480;-67
2022/12/25 21:34:41;;;;;;;51.10;30.10;;;;;;;6.95;68.98;99328.67;234487;1198;138583;-67
2022/12/25 22:24:36;;;;;;;47.60;29.60;;;;;;;6.65;69.08;99306.29;230156;1217;636745;-65
2022/12/25 22:46:51;;;;;;;43.30;28.20;;;;;;;6.53;69.03;99275.20;231439;1208;137759;-67
2022/12/25 23:01:48;;;;;;;48.40;28.20;;;;;;;6.64;68.63;99240.92;231535;1216;636308;-65
2022/12/25 23:15:36;;;;;;;41.90;27.10;;;;;;;6.62;68.53;99232.54;233577;1206;138263;-66
2022/12/25 23:35:08;;;;;;;43.10;25.90;;;;;;;6.49;68.91;99220.94;233353;1204;138325;-66
2022/12/25 23:41:06;;;;;;;;;;;;;;;;;;;;;
2022/12/25 23:55:44;;;;;;;;;;;;;;;;;;;;;
